Kasbeer, Illinois
Current Conditions -  °F | °C
As of 9:55 PM on Tuesday 25 Nov 2014 (Local Time) from KVYS Reporting Station
Clear Clear  
Wind Chill: 12°   Ceiling: Unl
Heat Index: 20°   Visibility: 10mi
Dew Point: 18°   Wind: 6mph
Humidity: 93%   Direction: 130°SE
Pressure: 30.19"   Gusts: NA
Location:  41.5°N, 89.46°W
Report Text: KVYS 260355Z AUTO 13005KT 10SM CLR M07/M08 A3019 RMK AO2 T10681078
Loading
Personal Weather Stations






























Interactive Weather Map New forecast layout! Learn more

10-Day Weather Forecast

Advertisements
Track Severe Weather on mobile